Time;durP1;ratioP1;P1;durP2;ratioP2;P2;SDS_P1;SDS_P2;PMS_P1;PMS_P2;Temp;Humidity;BMP_temperature;BMP_pressure;BME280_temperature;BME280_humidity;BME280_pressure;Samples;Min_cycle;Max_cycle;Signal;HPM_P1;HPM_P2
2022/07/31 00:02:31;;;;;;;1.90;1.40;;;;;;;;;;6309249;28;20189;-74
2022/07/31 00:05:33;;;;;;;;;;;;;;;;;;6299688;28;20337;-75
2022/07/31 00:08:35;;;;;;;1.60;1.30;;;;;;;;;;6288063;28;19924;-76
2022/07/31 00:11:36;;;;;;;2.42;1.23;;;;;;;;;;6312492;28;20102;-73
2022/07/31 00:14:38;;;;;;;1.75;1.30;;;;;;;;;;6309510;28;20052;-73
2022/07/31 00:17:42;;;;;;;2.42;1.52;;;;;;;;;;6313179;28;20126;-73
2022/07/31 00:20:43;;;;;;;1.73;1.15;;;;;;;;;;6307607;28;20094;-73
2022/07/31 00:23:45;;;;;;;1.65;1.13;;;;;;;;;;6312261;28;20056;-73
2022/07/31 00:26:47;;;;;;;4.65;1.70;;;;;;;;;;6301769;28;20127;-73
2022/07/31 00:29:49;;;;;;;1.63;1.17;;;;;;;;;;6285906;28;20141;-73
2022/07/31 00:32:51;;;;;;;1.70;1.42;;;;;;;;;;6284244;28;20267;-73
2022/07/31 00:35:53;;;;;;;2.08;1.27;;;;;;;;;;6285904;28;20044;-74
2022/07/31 00:38:55;;;;;;;2.55;1.00;;;;;;;;;;6283787;28;20056;-72
2022/07/31 00:41:56;;;;;;;1.33;1.17;;;;;;;;;;6284567;28;20056;-73
2022/07/31 00:44:58;;;;;;;1.42;1.15;;;;;;;;;;6282183;28;20232;-74
2022/07/31 00:48:02;;;;;;;2.22;1.20;;;;;;;;;;6286293;28;20045;-75
2022/07/31 00:51:04;;;;;;;1.80;1.10;;;;;;;;;;6285437;28;20047;-76
2022/07/31 00:54:06;;;;;;;2.40;0.98;;;;;;;;;;6283395;28;20060;-73
2022/07/31 00:57:08;;;;;;;3.08;1.50;;;;;;;;;;6285650;28;20060;-73
2022/07/31 01:00:12;;;;;;;2.13;1.48;;;;;;;;;;6284042;28;20048;-73
2022/07/31 01:03:15;;;;;;;1.75;1.20;;;;;;;;;;6287381;28;20059;-73
2022/07/31 01:06:17;;;;;;;3.13;1.55;;;;;;;;;;6286550;28;20056;-72
2022/07/31 01:09:18;;;;;;;1.95;1.10;;;;;;;;;;6286652;28;20110;-72
2022/07/31 01:12:25;;;;;;;1.60;1.30;;;;;;;;;;6285290;28;20048;-74
2022/07/31 01:15:27;;;;;;;3.72;1.25;;;;;;;;;;6286545;28;20060;-72
2022/07/31 01:18:32;;;;;;;2.15;1.30;;;;;;;;;;6286076;28;20082;-71
2022/07/31 01:21:41;;;;;;;2.38;1.45;;;;;;;;;;6284073;28;20331;-72
2022/07/31 01:24:52;;;;;;;1.83;1.30;;;;;;;;;;6301925;28;20052;-73
2022/07/31 01:28:02;;;;;;;1.55;1.10;;;;;;;;;;6309178;28;20045;-73
2022/07/31 01:31:07;;;;;;;5.55;1.30;;;;;;;;;;6306489;28;20062;-72
2022/07/31 01:34:14;;;;;;;4.43;1.13;;;;;;;;;;6290651;28;20232;-73
2022/07/31 01:37:20;;;;;;;1.90;1.50;;;;;;;;;;6281744;28;20052;-73
2022/07/31 01:40:27;;;;;;;2.35;1.25;;;;;;;;;;6285702;28;20048;-73
2022/07/31 01:43:34;;;;;;;2.53;1.10;;;;;;;;;;6280555;28;20279;-73
2022/07/31 01:46:37;;;;;;;4.97;1.83;;;;;;;;;;6281823;28;20036;-72
2022/07/31 01:49:40;;;;;;;1.30;1.13;;;;;;;;;;6286205;28;20049;-72
2022/07/31 01:52:42;;;;;;;2.13;1.25;;;;;;;;;;6286895;28;20095;-74
2022/07/31 01:55:44;;;;;;;2.10;1.05;;;;;;;;;;6286558;28;20150;-72
2022/07/31 01:58:47;;;;;;;2.42;1.73;;;;;;;;;;6286104;28;20234;-73
2022/07/31 02:01:51;;;;;;;1.80;1.00;;;;;;;;;;6285437;28;20231;-74
2022/07/31 02:04:53;;;;;;;2.55;1.10;;;;;;;;;;6288646;28;20291;-73
2022/07/31 02:07:54;;;;;;;1.42;1.10;;;;;;;;;;6288208;28;20094;-73
2022/07/31 02:10:57;;;;;;;2.65;1.00;;;;;;;;;;6272823;28;20052;-72
2022/07/31 02:13:59;;;;;;;1.52;1.10;;;;;;;;;;6296194;28;20102;-72
2022/07/31 02:17:03;;;;;;;1.90;1.50;;;;;;;;;;6305746;28;20236;-71
2022/07/31 02:20:05;;;;;;;;;;;;;;;;;;6304847;28;20139;-72
2022/07/31 02:23:07;;;;;;;2.50;1.52;;;;;;;;;;6307222;28;19917;-73
2022/07/31 02:26:09;;;;;;;1.90;1.10;;;;;;;;;;6305341;28;20052;-72
2022/07/31 02:29:13;;;;;;;1.98;1.20;;;;;;;;;;6303837;28;20216;-74
2022/07/31 02:32:17;;;;;;;1.65;1.20;;;;;;;;;;6304224;28;20068;-72
2022/07/31 02:35:19;;;;;;;2.03;1.27;;;;;;;;;;6302450;28;20059;-72
2022/07/31 02:38:22;;;;;;;2.13;1.10;;;;;;;;;;6305643;28;20114;-72
2022/07/31 02:41:24;;;;;;;2.25;1.40;;;;;;;;;;6306012;28;20052;-72
2022/07/31 02:44:27;;;;;;;2.92;1.58;;;;;;;;;;6306257;28;20048;-72
2022/07/31 02:47:30;;;;;;;1.23;1.10;;;;;;;;;;6302624;28;20093;-73
2022/07/31 02:50:31;;;;;;;3.33;1.30;;;;;;;;;;6302306;28;20118;-74
2022/07/31 02:53:34;;;;;;;1.58;1.10;;;;;;;;;;6309124;28;20285;-73
2022/07/31 02:56:35;;;;;;;1.33;1.10;;;;;;;;;;6303134;28;20059;-71
2022/07/31 02:59:38;;;;;;;1.23;1.10;;;;;;;;;;6305387;28;20051;-70
2022/07/31 03:02:41;;;;;;;2.28;1.10;;;;;;;;;;6304096;28;20323;-73
2022/07/31 03:05:42;;;;;;;1.45;1.10;;;;;;;;;;6306271;28;20052;-72
2022/07/31 03:08:44;;;;;;;2.78;1.23;;;;;;;;;;6306667;28;20049;-74
2022/07/31 03:11:46;;;;;;;2.53;1.08;;;;;;;;;;6307003;28;20221;-72
2022/07/31 03:14:47;;;;;;;1.40;1.10;;;;;;;;;;6302945;28;20059;-72
2022/07/31 03:17:51;;;;;;;1.55;1.10;;;;;;;;;;6300263;28;20059;-72
2022/07/31 03:20:54;;;;;;;2.67;1.23;;;;;;;;;;6302891;28;21031;-72
2022/07/31 03:23:56;;;;;;;1.50;1.10;;;;;;;;;;6303973;28;20372;-72
2022/07/31 03:26:59;;;;;;;1.25;1.05;;;;;;;;;;6305185;28;20071;-72
2022/07/31 03:30:00;;;;;;;2.83;1.20;;;;;;;;;;6301759;28;20083;-73
2022/07/31 03:33:03;;;;;;;1.48;1.10;;;;;;;;;;6303861;28;20063;-71
2022/07/31 03:36:05;;;;;;;2.70;1.20;;;;;;;;;;6308127;28;20051;-73
2022/07/31 03:39:07;;;;;;;1.42;1.20;;;;;;;;;;6310799;28;20084;-72
2022/07/31 03:42:09;;;;;;;2.10;1.45;;;;;;;;;;6307634;28;20052;-73
2022/07/31 03:45:12;;;;;;;3.30;1.30;;;;;;;;;;6311394;28;20285;-71
2022/07/31 03:48:15;;;;;;;2.60;1.23;;;;;;;;;;6307434;28;20345;-73
2022/07/31 03:51:16;;;;;;;2.03;1.58;;;;;;;;;;6308722;28;20055;-72
2022/07/31 03:54:18;;;;;;;2.25;1.00;;;;;;;;;;6308160;28;20090;-71
2022/07/31 03:57:20;;;;;;;3.25;1.65;;;;;;;;;;6307720;28;20056;-73
2022/07/31 04:00:33;;;;;;;1.95;1.27;;;;;;;;;;6307678;28;20111;-72
2022/07/31 04:03:37;;;;;;;3.75;1.40;;;;;;;;;;6307509;28;20068;-72
2022/07/31 04:06:39;;;;;;;2.03;1.27;;;;;;;;;;6306222;28;20059;-72
2022/07/31 04:09:41;;;;;;;2.15;1.20;;;;;;;;;;6304824;28;20049;-72
2022/07/31 04:12:43;;;;;;;3.28;1.10;;;;;;;;;;6303775;28;20044;-73
2022/07/31 04:15:44;;;;;;;3.08;1.13;;;;;;;;;;6302502;28;20064;-73
2022/07/31 04:18:47;;;;;;;3.55;1.20;;;;;;;;;;6303797;28;20580;-73
2022/07/31 04:22:04;;;;;;;2.45;1.70;;;;;;;;;;6308260;28;20078;-72
2022/07/31 04:25:06;;;;;;;4.00;1.70;;;;;;;;;;6303354;28;20040;-73
2022/07/31 04:28:08;;;;;;;2.07;1.50;;;;;;;;;;6305022;28;20155;-74
2022/07/31 04:31:09;;;;;;;1.67;1.25;;;;;;;;;;6307457;28;20482;-73
2022/07/31 04:34:12;;;;;;;3.65;1.13;;;;;;;;;;6306734;28;20094;-73
2022/07/31 04:37:15;;;;;;;2.22;1.30;;;;;;;;;;6305326;28;20060;-73
2022/07/31 04:40:17;;;;;;;2.30;1.17;;;;;;;;;;6305799;28;20063;-72
2022/07/31 04:43:19;;;;;;;1.90;1.20;;;;;;;;;;6307297;28;20075;-73
2022/07/31 04:46:20;;;;;;;1.80;1.40;;;;;;;;;;6310679;28;20056;-73
2022/07/31 04:49:23;;;;;;;4.30;1.20;;;;;;;;;;6306722;28;20040;-72
2022/07/31 04:52:25;;;;;;;3.22;1.33;;;;;;;;;;6306034;28;20044;-73
2022/07/31 04:55:27;;;;;;;8.20;1.63;;;;;;;;;;6308407;28;20281;-73
2022/07/31 04:58:28;;;;;;;2.58;1.50;;;;;;;;;;6307539;28;20053;-73
2022/07/31 05:01:30;;;;;;;2.15;1.20;;;;;;;;;;6306288;28;20111;-73
2022/07/31 05:04:33;;;;;;;1.60;1.20;;;;;;;;;;6306875;28;20098;-73
2022/07/31 05:07:34;;;;;;;1.55;1.15;;;;;;;;;;6305906;28;20937;-73
2022/07/31 05:13:56;;;;;;;4.80;1.60;;;;;;;;;;6286023;28;20059;-73
2022/07/31 05:16:57;;;;;;;5.68;1.40;;;;;;;;;;6306403;28;20040;-73
2022/07/31 05:20:00;;;;;;;1.85;1.10;;;;;;;;;;6307229;28;20052;-74
2022/07/31 05:23:02;;;;;;;1.80;1.20;;;;;;;;;;6307609;28;20321;-73
2022/07/31 05:26:04;;;;;;;1.75;1.10;;;;;;;;;;6305730;28;20110;-74
2022/07/31 05:29:06;;;;;;;2.42;1.20;;;;;;;;;;6303727;28;20056;-73
2022/07/31 05:32:07;;;;;;;3.60;1.57;;;;;;;;;;6307445;28;20060;-73
2022/07/31 05:35:11;;;;;;;2.15;1.48;;;;;;;;;;6307874;28;20052;-73
2022/07/31 05:38:12;;;;;;;5.10;1.30;;;;;;;;;;6307318;28;20052;-72
2022/07/31 05:41:14;;;;;;;3.33;1.45;;;;;;;;;;6308109;28;20048;-72
2022/07/31 05:44:16;;;;;;;1.50;1.38;;;;;;;;;;6303054;28;20048;-72
2022/07/31 05:47:17;;;;;;;1.40;1.10;;;;;;;;;;6304070;28;20044;-73
2022/07/31 05:50:21;;;;;;;5.85;1.70;;;;;;;;;;6304602;28;20052;-69
2022/07/31 05:53:23;;;;;;;2.38;1.23;;;;;;;;;;6305001;28;20036;-68
2022/07/31 05:56:26;;;;;;;1.48;1.27;;;;;;;;;;6302312;28;20201;-68
2022/07/31 05:59:28;;;;;;;2.70;1.55;;;;;;;;;;6305428;28;20285;-71
2022/07/31 06:02:29;;;;;;;2.25;1.55;;;;;;;;;;6303671;28;20050;-68
2022/07/31 06:05:33;;;;;;;5.03;1.50;;;;;;;;;;6308933;28;20356;-73
2022/07/31 06:08:34;;;;;;;;;;;;;;;;;;6306639;28;20056;-70
2022/07/31 06:11:36;;;;;;;3.97;1.60;;;;;;;;;;6304203;28;19924;-68
2022/07/31 06:14:37;;;;;;;2.13;1.58;;;;;;;;;;6302908;28;20323;-68
2022/07/31 06:17:39;;;;;;;4.05;1.50;;;;;;;;;;6307636;28;20044;-69
2022/07/31 06:20:42;;;;;;;4.30;1.65;;;;;;;;;;6301241;28;20044;-69
2022/07/31 06:23:44;;;;;;;5.28;1.73;;;;;;;;;;6302480;28;20052;-68
2022/07/31 06:26:45;;;;;;;2.80;1.75;;;;;;;;;;6302425;28;20056;-70
2022/07/31 06:29:47;;;;;;;3.28;1.80;;;;;;;;;;6305288;28;20056;-69
2022/07/31 06:32:49;;;;;;;5.47;2.13;;;;;;;;;;6304714;28;20332;-68
2022/07/31 06:35:52;;;;;;;2.22;1.40;;;;;;;;;;6303904;28;20056;-69
2022/07/31 06:38:53;;;;;;;2.20;1.63;;;;;;;;;;6306069;28;20051;-68
2022/07/31 06:41:55;;;;;;;1.50;1.40;;;;;;;;;;6304794;28;20324;-67
2022/07/31 06:44:57;;;;;;;2.28;1.65;;;;;;;;;;6304987;28;20044;-69
2022/07/31 06:47:58;;;;;;;2.97;1.70;;;;;;;;;;6304260;28;20040;-68
2022/07/31 06:51:01;;;;;;;5.85;1.80;;;;;;;;;;6302308;28;20051;-68
2022/07/31 06:54:05;;;;;;;2.95;1.95;;;;;;;;;;6302747;28;20246;-68
2022/07/31 06:57:07;;;;;;;3.17;1.50;;;;;;;;;;6304823;28;20102;-68
2022/07/31 07:00:09;;;;;;;4.60;1.58;;;;;;;;;;6300553;28;20060;-68
2022/07/31 07:03:11;;;;;;;4.43;1.75;;;;;;;;;;6306117;28;20528;-69
2022/07/31 07:06:14;;;;;;;2.25;1.77;;;;;;;;;;6303866;28;20129;-68
2022/07/31 07:09:15;;;;;;;2.70;1.50;;;;;;;;;;6304280;28;20327;-68
2022/07/31 07:12:17;;;;;;;2.13;1.60;;;;;;;;;;6300486;28;20147;-68
2022/07/31 07:15:19;;;;;;;3.20;1.60;;;;;;;;;;6303153;28;20052;-69
2022/07/31 07:18:21;;;;;;;2.35;1.60;;;;;;;;;;6304534;28;20043;-68
2022/07/31 07:21:24;;;;;;;1.88;1.52;;;;;;;;;;6301887;28;20076;-70
2022/07/31 07:24:26;;;;;;;2.47;1.40;;;;;;;;;;6302344;28;20128;-70
2022/07/31 07:27:27;;;;;;;1.92;1.48;;;;;;;;;;6301633;28;20052;-70
2022/07/31 07:30:29;;;;;;;3.03;1.33;;;;;;;;;;6301459;28;20057;-69
2022/07/31 07:33:31;;;;;;;2.28;1.75;;;;;;;;;;6302232;28;20052;-71
2022/07/31 07:36:35;;;;;;;3.38;1.40;;;;;;;;;;6300018;28;20080;-69
2022/07/31 07:39:36;;;;;;;2.63;1.50;;;;;;;;;;6304017;28;20051;-69
2022/07/31 07:42:38;;;;;;;3.95;1.30;;;;;;;;;;6301076;28;20097;-69
2022/07/31 07:45:40;;;;;;;4.20;1.30;;;;;;;;;;6304467;28;20094;-68
2022/07/31 07:48:41;;;;;;;2.25;1.50;;;;;;;;;;6300434;28;20083;-69
2022/07/31 07:51:44;;;;;;;2.33;1.40;;;;;;;;;;6299965;28;20060;-69
2022/07/31 07:54:46;;;;;;;;;;;;;;;;;;6300849;28;20060;-68
2022/07/31 07:57:47;;;;;;;2.85;1.30;;;;;;;;;;6299552;28;20316;-68
2022/07/31 08:00:49;;;;;;;5.60;1.60;;;;;;;;;;6299875;28;20053;-69
2022/07/31 08:03:51;;;;;;;2.17;1.50;;;;;;;;;;6300913;28;20247;-70
2022/07/31 08:06:54;;;;;;;3.22;1.40;;;;;;;;;;6298503;28;20063;-68
2022/07/31 08:09:55;;;;;;;2.30;1.40;;;;;;;;;;6303847;28;20316;-68
2022/07/31 08:12:57;;;;;;;2.67;1.83;;;;;;;;;;6302868;28;20043;-72
2022/07/31 08:15:58;;;;;;;2.42;1.33;;;;;;;;;;6302813;28;20102;-68
2022/07/31 08:19:00;;;;;;;3.10;1.58;;;;;;;;;;6299693;28;20056;-70
2022/07/31 08:22:03;;;;;;;1.50;1.38;;;;;;;;;;6304990;28;20048;-69
2022/07/31 08:25:05;;;;;;;3.25;1.60;;;;;;;;;;6303961;28;20114;-71
2022/07/31 08:28:06;;;;;;;3.00;1.55;;;;;;;;;;6304720;28;21072;-69
2022/07/31 08:31:08;;;;;;;2.17;1.55;;;;;;;;;;6303882;28;20263;-69
2022/07/31 08:34:10;;;;;;;1.90;1.40;;;;;;;;;;6306585;28;20359;-69
2022/07/31 08:37:13;;;;;;;2.15;1.40;;;;;;;;;;6305695;28;20113;-68
2022/07/31 08:40:17;;;;;;;3.75;1.67;;;;;;;;;;6306707;28;20090;-69
2022/07/31 08:43:18;;;;;;;2.33;1.83;;;;;;;;;;6305071;28;20250;-69
2022/07/31 08:46:20;;;;;;;3.42;1.52;;;;;;;;;;6309262;28;20048;-70
2022/07/31 08:49:25;;;;;;;2.03;1.75;;;;;;;;;;6306813;28;20056;-69
2022/07/31 08:52:31;;;;;;;3.03;1.70;;;;;;;;;;6304060;28;20355;-68
2022/07/31 08:55:43;;;;;;;4.35;1.65;;;;;;;;;;6303351;28;20048;-69
2022/07/31 08:58:45;;;;;;;5.10;2.00;;;;;;;;;;6303526;28;20040;-70
2022/07/31 09:01:47;;;;;;;4.43;1.90;;;;;;;;;;6304723;28;20053;-70
2022/07/31 09:04:50;;;;;;;2.65;2.00;;;;;;;;;;6305735;28;20057;-69
2022/07/31 09:07:54;;;;;;;3.95;2.10;;;;;;;;;;6304202;28;20089;-70
2022/07/31 09:11:04;;;;;;;2.63;2.10;;;;;;;;;;6301998;28;20136;-68
2022/07/31 09:14:08;;;;;;;2.55;2.00;;;;;;;;;;6305773;28;20137;-68
2022/07/31 09:17:14;;;;;;;4.03;2.53;;;;;;;;;;6303896;28;20056;-67
2022/07/31 09:20:18;;;;;;;1.85;1.60;;;;;;;;;;6307444;28;20048;-71
2022/07/31 09:23:21;;;;;;;2.42;2.05;;;;;;;;;;6303679;28;20054;-73
2022/07/31 09:26:33;;;;;;;2.50;2.25;;;;;;;;;;6303335;28;20117;-70
2022/07/31 09:29:36;;;;;;;2.75;2.00;;;;;;;;;;6307277;28;20098;-72
2022/07/31 09:32:37;;;;;;;5.55;2.10;;;;;;;;;;6300940;28;20048;-72
2022/07/31 09:35:46;;;;;;;3.47;2.53;;;;;;;;;;6304033;28;20049;-71
2022/07/31 09:38:49;;;;;;;2.55;2.33;;;;;;;;;;6302670;28;20053;-73
2022/07/31 09:41:51;;;;;;;2.35;1.73;;;;;;;;;;6302976;28;20052;-71
2022/07/31 09:44:53;;;;;;;2.70;2.08;;;;;;;;;;6302839;28;20060;-71
2022/07/31 09:48:05;;;;;;;3.25;2.22;;;;;;;;;;6305312;28;20086;-72
2022/07/31 09:51:08;;;;;;;3.40;2.00;;;;;;;;;;6302906;28;20036;-72
2022/07/31 09:54:21;;;;;;;2.40;1.90;;;;;;;;;;6304838;28;20216;-72
2022/07/31 09:57:23;;;;;;;4.15;2.15;;;;;;;;;;6303219;28;20323;-72
2022/07/31 10:00:25;;;;;;;2.15;1.67;;;;;;;;;;6305190;28;20060;-72
2022/07/31 10:03:27;;;;;;;2.65;2.10;;;;;;;;;;6300512;28;20056;-71
2022/07/31 10:06:29;;;;;;;;;;;;;;;;;;6303203;28;20099;-71
2022/07/31 10:09:32;;;;;;;2.55;1.50;;;;;;;;;;6305112;28;20256;-72
2022/07/31 10:12:35;;;;;;;1.98;1.77;;;;;;;;;;6303446;28;20056;-71
2022/07/31 10:15:37;;;;;;;4.15;1.92;;;;;;;;;;6303810;28;20102;-71
2022/07/31 10:18:42;;;;;;;2.95;1.90;;;;;;;;;;6300227;28;20053;-71
2022/07/31 10:21:48;;;;;;;3.10;1.90;;;;;;;;;;6304142;28;20097;-72
2022/07/31 10:24:52;;;;;;;2.17;1.95;;;;;;;;;;6304882;28;20060;-71
2022/07/31 10:27:55;;;;;;;2.42;1.90;;;;;;;;;;6302597;28;20085;-71
2022/07/31 10:30:58;;;;;;;2.85;1.80;;;;;;;;;;6301296;28;20051;-73
2022/07/31 10:34:01;;;;;;;2.00;1.80;;;;;;;;;;6304134;28;20055;-72
2022/07/31 10:37:08;;;;;;;3.92;1.83;;;;;;;;;;6303367;28;20051;-71
2022/07/31 10:40:20;;;;;;;2.40;1.77;;;;;;;;;;6301631;28;20063;-72
2022/07/31 10:43:27;;;;;;;2.55;1.83;;;;;;;;;;6303236;28;20327;-72
2022/07/31 10:46:30;;;;;;;2.20;1.92;;;;;;;;;;6300186;28;20205;-72
2022/07/31 10:49:38;;;;;;;1.90;1.80;;;;;;;;;;6306033;28;20044;-71
2022/07/31 10:52:40;;;;;;;2.28;1.70;;;;;;;;;;6302917;28;20363;-72
2022/07/31 10:55:43;;;;;;;3.10;1.60;;;;;;;;;;6304343;28;20071;-72
2022/07/31 10:58:49;;;;;;;5.22;1.73;;;;;;;;;;6300775;28;20273;-71
2022/07/31 11:01:53;;;;;;;2.55;1.70;;;;;;;;;;6305031;28;20056;-71
2022/07/31 11:05:06;;;;;;;2.75;1.58;;;;;;;;;;6302438;28;20111;-72
2022/07/31 11:08:08;;;;;;;2.40;1.75;;;;;;;;;;6301272;28;20366;-72
2022/07/31 11:11:12;;;;;;;2.90;1.90;;;;;;;;;;6297025;28;20243;-72
2022/07/31 11:14:14;;;;;;;2.15;1.60;;;;;;;;;;6300812;28;20076;-74
2022/07/31 11:17:16;;;;;;;4.32;1.92;;;;;;;;;;6305946;28;20067;-74
2022/07/31 11:20:19;;;;;;;1.75;1.65;;;;;;;;;;6308535;28;20067;-74
2022/07/31 11:23:29;;;;;;;2.15;1.90;;;;;;;;;;6299351;28;20384;-74
2022/07/31 11:26:32;;;;;;;1.60;1.50;;;;;;;;;;6303793;28;20316;-73
2022/07/31 11:29:35;;;;;;;2.03;1.60;;;;;;;;;;6304776;28;20520;-75
2022/07/31 11:32:37;;;;;;;1.88;1.70;;;;;;;;;;6303660;28;20280;-75
2022/07/31 11:35:38;;;;;;;2.40;2.20;;;;;;;;;;6304588;28;20044;-74
2022/07/31 11:38:41;;;;;;;1.85;1.73;;;;;;;;;;6302687;28;20056;-74
2022/07/31 11:41:46;;;;;;;1.70;1.60;;;;;;;;;;6305850;28;20051;-76
2022/07/31 11:44:48;;;;;;;1.85;1.50;;;;;;;;;;6304154;28;20234;-75
2022/07/31 11:47:50;;;;;;;1.98;1.73;;;;;;;;;;6304822;28;20164;-75
2022/07/31 11:50:53;;;;;;;2.85;1.88;;;;;;;;;;6303376;28;20110;-75
2022/07/31 11:53:55;;;;;;;2.60;1.75;;;;;;;;;;6305191;28;20204;-74
2022/07/31 11:56:58;;;;;;;1.75;1.65;;;;;;;;;;6311580;28;20040;-75
2022/07/31 12:00:10;;;;;;;1.58;1.48;;;;;;;;;;6314349;28;20118;-75
2022/07/31 12:03:12;;;;;;;2.20;1.73;;;;;;;;;;6310226;28;20075;-74
2022/07/31 12:06:18;;;;;;;2.03;1.70;;;;;;;;;;6308900;28;20067;-72
2022/07/31 12:09:21;;;;;;;2.45;1.70;;;;;;;;;;6308966;28;20102;-71
2022/07/31 12:12:25;;;;;;;1.80;1.70;;;;;;;;;;6308490;28;20052;-71
2022/07/31 12:15:26;;;;;;;1.80;1.70;;;;;;;;;;6309023;28;20211;-72
2022/07/31 12:18:29;;;;;;;2.70;1.50;;;;;;;;;;6311304;28;20044;-72
2022/07/31 12:21:33;;;;;;;1.70;1.60;;;;;;;;;;6313866;28;20060;-73
2022/07/31 12:24:35;;;;;;;1.67;1.50;;;;;;;;;;6307044;28;20056;-71
2022/07/31 12:27:39;;;;;;;2.53;1.90;;;;;;;;;;6309479;28;20056;-72
2022/07/31 12:30:40;;;;;;;2.10;1.88;;;;;;;;;;6314092;28;20048;-70
2022/07/31 12:33:43;;;;;;;2.90;2.10;;;;;;;;;;6315599;28;20056;-70
2022/07/31 12:36:44;;;;;;;1.98;1.80;;;;;;;;;;6311975;28;22014;-73
2022/07/31 12:39:51;;;;;;;;;;;;;;;;;;6313530;28;20320;-70
2022/07/31 12:42:54;;;;;;;2.67;2.15;;;;;;;;;;6302825;28;19924;-71
2022/07/31 12:45:59;;;;;;;1.92;1.73;;;;;;;;;;6296318;28;20052;-72
2022/07/31 12:49:00;;;;;;;2.50;1.80;;;;;;;;;;6306370;28;20172;-71
2022/07/31 12:52:02;;;;;;;1.77;1.67;;;;;;;;;;6310347;28;20090;-72
2022/07/31 12:55:04;;;;;;;3.10;1.90;;;;;;;;;;6305929;28;20052;-72
2022/07/31 12:58:07;;;;;;;2.40;1.80;;;;;;;;;;6303462;28;20051;-72
2022/07/31 13:01:09;;;;;;;1.90;1.80;;;;;;;;;;6305962;28;20146;-72
2022/07/31 13:04:11;;;;;;;2.20;1.77;;;;;;;;;;6309986;28;20060;-71
2022/07/31 13:07:13;;;;;;;3.78;2.08;;;;;;;;;;6304689;28;20055;-69
2022/07/31 13:10:16;;;;;;;3.92;2.10;;;;;;;;;;6306975;28;20090;-70
2022/07/31 13:13:22;;;;;;;2.47;1.95;;;;;;;;;;6308598;28;20049;-71
2022/07/31 13:16:23;;;;;;;3.13;1.75;;;;;;;;;;6308466;28;20044;-70
2022/07/31 13:19:26;;;;;;;2.75;1.83;;;;;;;;;;6309373;28;20262;-70
2022/07/31 13:22:27;;;;;;;2.75;1.77;;;;;;;;;;6309468;28;20268;-69
2022/07/31 13:25:30;;;;;;;2.17;1.80;;;;;;;;;;6303794;28;20094;-71
2022/07/31 13:28:33;;;;;;;2.53;1.70;;;;;;;;;;6306512;28;20385;-70
2022/07/31 13:31:34;;;;;;;2.67;1.90;;;;;;;;;;6302315;28;20094;-69
2022/07/31 13:34:36;;;;;;;3.88;1.85;;;;;;;;;;6301621;28;20331;-69
2022/07/31 13:37:38;;;;;;;1.95;1.75;;;;;;;;;;6306051;28;20053;-68
2022/07/31 13:44:00;;;;;;;2.80;1.75;;;;;;;;;;6307601;28;20165;-70
2022/07/31 13:47:01;;;;;;;2.53;2.00;;;;;;;;;;6308396;28;20056;-67
2022/07/31 13:50:03;;;;;;;1.77;1.60;;;;;;;;;;6303166;28;20056;-68
2022/07/31 13:53:05;;;;;;;2.20;2.00;;;;;;;;;;6307296;28;20384;-71
2022/07/31 13:56:07;;;;;;;3.92;3.17;;;;;;;;;;6306274;28;20397;-74
2022/07/31 13:59:11;;;;;;;6.45;3.50;;;;;;;;;;6314198;28;20110;-72
2022/07/31 14:02:13;;;;;;;3.60;2.67;;;;;;;;;;6301802;28;20330;-72
2022/07/31 14:05:14;;;;;;;2.40;1.73;;;;;;;;;;6300252;28;20055;-69
2022/07/31 14:08:16;;;;;;;3.58;2.22;;;;;;;;;;6307190;28;20056;-70
2022/07/31 14:11:18;;;;;;;2.28;1.70;;;;;;;;;;6304732;28;20205;-72
2022/07/31 14:14:21;;;;;;;2.47;1.60;;;;;;;;;;6301949;28;20048;-73
2022/07/31 14:17:22;;;;;;;1.70;1.60;;;;;;;;;;6303445;28;20102;-71
2022/07/31 14:20:24;;;;;;;;;;;;;;;;;;6303852;28;20041;-69
2022/07/31 14:23:26;;;;;;;3.38;1.70;;;;;;;;;;6301654;28;20085;-69
2022/07/31 14:26:27;;;;;;;2.78;1.60;;;;;;;;;;6301764;28;20036;-69
2022/07/31 14:29:30;;;;;;;;;;;;;;;;;;6304867;28;20106;-73
2022/07/31 14:32:32;;;;;;;3.42;1.92;;;;;;;;;;6301706;28;19927;-69
2022/07/31 14:35:33;;;;;;;2.95;1.70;;;;;;;;;;6300605;28;20109;-70
2022/07/31 14:38:35;;;;;;;2.33;1.42;;;;;;;;;;6303551;28;20060;-69
2022/07/31 14:41:37;;;;;;;1.80;1.40;;;;;;;;;;6299607;28;20051;-72
2022/07/31 14:44:40;;;;;;;1.50;1.40;;;;;;;;;;6303846;28;20048;-70
2022/07/31 14:47:45;;;;;;;2.38;1.40;;;;;;;;;;6302057;28;20048;-74
2022/07/31 14:50:46;;;;;;;1.67;1.50;;;;;;;;;;6302494;28;20048;-68
2022/07/31 14:53:48;;;;;;;2.17;1.70;;;;;;;;;;6301188;28;20056;-70
2022/07/31 14:56:50;;;;;;;1.58;1.48;;;;;;;;;;6301195;28;20040;-70
2022/07/31 14:59:53;;;;;;;2.28;1.40;;;;;;;;;;6303132;28;20125;-69
2022/07/31 15:02:54;;;;;;;3.05;1.40;;;;;;;;;;6300067;28;20094;-71
2022/07/31 15:05:56;;;;;;;1.92;1.40;;;;;;;;;;6302294;28;20052;-69
2022/07/31 15:08:58;;;;;;;1.80;1.70;;;;;;;;;;6301179;28;20226;-69
2022/07/31 15:12:00;;;;;;;3.25;1.52;;;;;;;;;;6297777;28;20121;-71
2022/07/31 15:15:03;;;;;;;1.83;1.65;;;;;;;;;;6301327;28;20323;-69
2022/07/31 15:18:05;;;;;;;2.28;1.50;;;;;;;;;;6299539;28;20063;-69
2022/07/31 15:21:11;;;;;;;1.58;1.40;;;;;;;;;;6301651;28;20262;-73
2022/07/31 15:24:12;;;;;;;2.38;1.50;;;;;;;;;;6302386;28;20056;-68
2022/07/31 15:27:14;;;;;;;3.97;1.77;;;;;;;;;;6301526;28;20056;-68
2022/07/31 15:30:20;;;;;;;2.65;1.35;;;;;;;;;;6305386;28;20048;-71
2022/07/31 15:33:22;;;;;;;3.42;1.60;;;;;;;;;;6307541;28;20045;-68
2022/07/31 15:36:24;;;;;;;1.77;1.60;;;;;;;;;;6306048;28;20132;-68
2022/07/31 15:39:25;;;;;;;1.95;1.67;;;;;;;;;;6309258;28;20052;-69
2022/07/31 15:42:27;;;;;;;2.42;1.98;;;;;;;;;;6305536;28;20056;-67
2022/07/31 15:45:30;;;;;;;10.70;1.70;;;;;;;;;;6306788;28;20055;-69
2022/07/31 15:48:32;;;;;;;2.20;1.42;;;;;;;;;;6306115;28;20446;-68
2022/07/31 15:51:33;;;;;;;3.23;1.80;;;;;;;;;;6306914;28;20097;-67
2022/07/31 15:54:35;;;;;;;2.73;1.63;;;;;;;;;;6303931;28;20068;-67
2022/07/31 15:57:37;;;;;;;2.00;1.38;;;;;;;;;;6305071;28;20485;-69
2022/07/31 16:00:40;;;;;;;3.60;1.60;;;;;;;;;;6306788;28;20044;-67
2022/07/31 16:03:41;;;;;;;2.53;1.73;;;;;;;;;;6312216;28;20281;-68
2022/07/31 16:06:43;;;;;;;1.70;1.60;;;;;;;;;;6312550;28;20048;-67
2022/07/31 16:09:45;;;;;;;1.88;1.40;;;;;;;;;;6310042;28;20344;-68
2022/07/31 16:12:47;;;;;;;2.10;1.43;;;;;;;;;;6306241;28;20059;-68
2022/07/31 16:15:50;;;;;;;2.65;1.63;;;;;;;;;;6312830;28;20052;-69
2022/07/31 16:18:52;;;;;;;2.42;1.60;;;;;;;;;;6312061;28;20231;-69
2022/07/31 16:21:54;;;;;;;4.23;1.53;;;;;;;;;;6308437;28;20048;-68
2022/07/31 16:24:56;;;;;;;1.60;1.48;;;;;;;;;;6313237;28;20045;-69
2022/07/31 16:27:57;;;;;;;2.03;1.63;;;;;;;;;;6313868;28;20102;-69
2022/07/31 16:31:00;;;;;;;2.63;1.73;;;;;;;;;;6317104;28;20047;-68
2022/07/31 16:34:02;;;;;;;2.25;1.88;;;;;;;;;;6316001;28;20319;-68
2022/07/31 16:37:04;;;;;;;2.50;1.30;;;;;;;;;;6314785;28;20047;-66
2022/07/31 16:40:07;;;;;;;1.77;1.50;;;;;;;;;;6314335;28;20086;-66
2022/07/31 16:43:09;;;;;;;1.75;1.20;;;;;;;;;;6311306;28;20048;-67
2022/07/31 16:46:12;;;;;;;1.70;1.40;;;;;;;;;;6311663;28;20063;-67
2022/07/31 16:49:37;;;;;;;2.47;1.85;;;;;;;;;;6308083;28;20051;-69
2022/07/31 16:52:39;;;;;;;3.20;1.63;;;;;;;;;;6303627;28;20044;-68
2022/07/31 16:55:40;;;;;;;1.63;1.27;;;;;;;;;;6311492;28;20052;-69
2022/07/31 16:58:42;;;;;;;2.23;1.47;;;;;;;;;;6307931;28;20052;-68
2022/07/31 17:01:45;;;;;;;2.80;1.40;;;;;;;;;;6308392;28;20087;-68
2022/07/31 17:04:47;;;;;;;1.98;1.27;;;;;;;;;;6303767;28;20323;-69
2022/07/31 17:07:48;;;;;;;3.47;1.63;;;;;;;;;;6306639;28;20060;-71
2022/07/31 17:10:50;;;;;;;2.15;1.85;;;;;;;;;;6306085;28;20110;-71
2022/07/31 17:13:52;;;;;;;1.90;1.33;;;;;;;;;;6306895;28;20051;-68
2022/07/31 17:16:55;;;;;;;1.40;1.30;;;;;;;;;;6302441;28;20056;-70
2022/07/31 17:19:57;;;;;;;2.20;1.40;;;;;;;;;;6307596;28;20045;-69
2022/07/31 17:22:59;;;;;;;1.85;1.30;;;;;;;;;;6312606;28;20243;-67
2022/07/31 17:26:00;;;;;;;1.80;1.50;;;;;;;;;;6311136;28;20112;-70
2022/07/31 17:29:02;;;;;;;2.25;1.15;;;;;;;;;;6316640;28;20040;-71
2022/07/31 17:32:05;;;;;;;1.40;1.27;;;;;;;;;;6306722;28;20052;-68
2022/07/31 17:35:08;;;;;;;3.92;1.27;;;;;;;;;;6309309;28;20070;-70
2022/07/31 17:38:09;;;;;;;;;;;;;;;;;;6308484;28;20315;-69
2022/07/31 17:41:11;;;;;;;1.92;1.50;;;;;;;;;;6309163;28;19917;-68
2022/07/31 17:44:13;;;;;;;5.07;1.27;;;;;;;;;;6311227;28;20098;-68
2022/07/31 17:47:18;;;;;;;2.53;1.27;;;;;;;;;;6306628;28;20070;-75
2022/07/31 17:50:20;;;;;;;4.32;1.30;;;;;;;;;;6313318;28;20044;-70
2022/07/31 17:53:22;;;;;;;3.78;1.23;;;;;;;;;;6312708;28;20050;-72
2022/07/31 17:56:23;;;;;;;2.47;1.30;;;;;;;;;;6309414;28;20331;-70
2022/07/31 17:59:25;;;;;;;4.63;1.30;;;;;;;;;;6309830;28;20044;-72
2022/07/31 18:02:28;;;;;;;3.47;1.45;;;;;;;;;;6307528;28;20048;-76
2022/07/31 18:05:30;;;;;;;2.33;1.40;;;;;;;;;;6310224;28;20045;-73
2022/07/31 18:08:31;;;;;;;3.30;1.52;;;;;;;;;;6309213;28;20048;-74
2022/07/31 18:11:33;;;;;;;3.40;1.40;;;;;;;;;;6310529;28;20064;-74
2022/07/31 18:14:35;;;;;;;2.55;2.15;;;;;;;;;;6307814;28;20089;-69
2022/07/31 18:17:40;;;;;;;2.30;1.80;;;;;;;;;;6306761;28;20048;-70
2022/07/31 18:20:44;;;;;;;3.55;1.27;;;;;;;;;;6304319;28;20063;-68
2022/07/31 18:23:45;;;;;;;2.15;1.48;;;;;;;;;;6305312;28;20348;-69
2022/07/31 18:26:48;;;;;;;2.80;1.60;;;;;;;;;;6306173;28;20320;-69